Sylvania, OH

6:20 AM EDT on August 31, 2014 (GMT -0400)
Metcalf | Change Station
CLOSE
Current Station
Airport
Location: Toledo Metcalf,
Elevation: 623 ft
Nearby Weather Stations

Elev 623 ft 41.56 °N, 83.48 °W | Updated 27 minutes ago

Mostly Cloudy
Mostly Cloudy
73 °F
Feels Like 73 °F
N
9
Wind Variable Wind from SW

Today
High -- | Low -- °F
--% Chance of Precip.
Yesterday
High -- | Low -- °F
Precip. -- in
6:59 AM 8:09 PM
Waxing Crescent, 29% visible
Pressure 29.94 in
Visibility 10.0 miles
Clouds Scattered Clouds 2000 ft
Mostly Cloudy 7500 ft
Dew Point 67 °F
Humidity 81%
Rainfall 0.00 in
Snow Depth Not available.
UV 0 out of 12
Pollen 9.50 out of 12
Air Quality Not available.
Flu Activity Not available.
METAR KTDZ 310953Z AUTO 22008KT 10SM SCT020 BKN075 23/19 A2995 RMK AO2 SLP138 T02280194 TSNO

More Conditions Fewer Conditions

Pressure 29.94 in
Visibility 10.0 miles
Clouds Scattered Clouds 2000 ft
Mostly Cloudy 7500 ft
Dew Point 67 °F
Humidity 81%
Rainfall 0.00 in
Snow Depth Not available.
UV 0 out of 12
Pollen 9.50 out of 12
Air Quality Not available.
Flu Activity Not available.
METAR KTDZ 310953Z AUTO 22008KT 10SM SCT020 BKN075 23/19 A2995 RMK AO2 SLP138 T02280194 TSNO

More Conditions Fewer Conditions

10-Day Weather Forecast

Almanac

Astronomy

Aug. 31, 2014 Rise Set
Actual Time 6:59 AM EDT 8:09 PM EDT
Civil Twilight 6:31 AM EDT 8:38 PM EDT
Nautical Twilight 5:56 AM EDT 9:12 PM EDT
Astronomical Twilight 5:20 AM EDT 9:48 PM EDT
Moon 12:50 PM EDT 11:18 PM EDT
Length of Visible Light 14h 07m
Length of Day
13h 10m
Tomorrow will be 2m 41s shorter.
Waxing Crescent, 29% of the Moon is Illuminated
Today
Waxing Crescent
Sep 2
First Quarter
Sep 8
Full
Sep 15
Last Quarter
Sep 24
New

Today's Extremes

State Highs State Lows

Community

WunderPhotos

Upload Photos

1,748,834 photos uploaded!

Nearby

Snow Depth

Station Depth Elevation
No new snow has been reported.

Earthquake Activity

City Distance Mag. Time & Date
No recent earthquake activity has been reported nearby.
Minimum magnitude displayed is 2.5.

Coastal Water Temperatures

Place Temperature
Marblehead, OH 73.0 °F

Nearby Weather Stations